sensor_id;sensor_type;location;lat;lon;timestamp;temperature;humidity
66506;HTU21D;53332;51.082;5.832;2023-08-17T00:01:55;21.79;105.56
66506;HTU21D;53332;51.082;5.832;2023-08-17T00:04:21;21.77;105.36
66506;HTU21D;53332;51.082;5.832;2023-08-17T00:06:46;21.76;104.64
66506;HTU21D;53332;51.082;5.832;2023-08-17T00:09:12;21.72;104.47
66506;HTU21D;53332;51.082;5.832;2023-08-17T00:11:39;21.66;104.57
66506;HTU21D;53332;51.082;5.832;2023-08-17T00:14:05;21.67;104.79
66506;HTU21D;53332;51.082;5.832;2023-08-17T00:16:31;21.64;104.58
66506;HTU21D;53332;51.082;5.832;2023-08-17T00:18:57;21.64;104.29
66506;HTU21D;53332;51.082;5.832;2023-08-17T00:21:23;21.62;104.90
66506;HTU21D;53332;51.082;5.832;2023-08-17T00:23:48;21.65;105.04
66506;HTU21D;53332;51.082;5.832;2023-08-17T00:26:15;21.64;104.91
66506;HTU21D;53332;51.082;5.832;2023-08-17T00:28:40;21.60;104.54
66506;HTU21D;53332;51.082;5.832;2023-08-17T00:31:06;21.52;104.37
66506;HTU21D;53332;51.082;5.832;2023-08-17T00:33:31;21.47;104.89
66506;HTU21D;53332;51.082;5.832;2023-08-17T00:35:57;21.44;105.28
66506;HTU21D;53332;51.082;5.832;2023-08-17T00:38:23;21.38;105.01
66506;HTU21D;53332;51.082;5.832;2023-08-17T00:40:48;21.32;105.65
66506;HTU21D;53332;51.082;5.832;2023-08-17T00:43:14;21.28;106.39
66506;HTU21D;53332;51.082;5.832;2023-08-17T00:45:40;21.29;106.67
66506;HTU21D;53332;51.082;5.832;2023-08-17T00:48:07;21.22;106.17
66506;HTU21D;53332;51.082;5.832;2023-08-17T00:50:35;21.14;106.33
66506;HTU21D;53332;51.082;5.832;2023-08-17T00:53:03;21.07;106.93
66506;HTU21D;53332;51.082;5.832;2023-08-17T00:55:28;21.01;107.44
66506;HTU21D;53332;51.082;5.832;2023-08-17T00:57:56;20.98;108.04
66506;HTU21D;53332;51.082;5.832;2023-08-17T01:00:22;20.99;107.95
66506;HTU21D;53332;51.082;5.832;2023-08-17T01:02:49;20.96;108.04
66506;HTU21D;53332;51.082;5.832;2023-08-17T01:05:14;20.96;108.42
66506;HTU21D;53332;51.082;5.832;2023-08-17T01:07:40;20.93;108.72
66506;HTU21D;53332;51.082;5.832;2023-08-17T01:10:08;20.90;109.30
66506;HTU21D;53332;51.082;5.832;2023-08-17T01:12:44;20.90;109.69
66506;HTU21D;53332;51.082;5.832;2023-08-17T01:15:21;20.93;109.59
66506;HTU21D;53332;51.082;5.832;2023-08-17T01:18:20;20.88;110.29
66506;HTU21D;53332;51.082;5.832;2023-08-17T01:20:50;20.87;110.58
66506;HTU21D;53332;51.082;5.832;2023-08-17T01:23:16;20.84;111.40
66506;HTU21D;53332;51.082;5.832;2023-08-17T01:25:41;20.88;111.94
66506;HTU21D;53332;51.082;5.832;2023-08-17T01:28:07;20.94;111.90
66506;HTU21D;53332;51.082;5.832;2023-08-17T01:30:57;20.99;111.60
66506;HTU21D;53332;51.082;5.832;2023-08-17T01:33:40;21.00;111.35
66506;HTU21D;53332;51.082;5.832;2023-08-17T01:38:51;20.95;110.81
66506;HTU21D;53332;51.082;5.832;2023-08-17T01:41:20;20.89;111.16
66506;HTU21D;53332;51.082;5.832;2023-08-17T01:43:47;20.83;111.71
66506;HTU21D;53332;51.082;5.832;2023-08-17T01:46:17;20.80;112.30
66506;HTU21D;53332;51.082;5.832;2023-08-17T01:48:44;20.79;112.97
66506;HTU21D;53332;51.082;5.832;2023-08-17T01:51:11;20.77;112.97
66506;HTU21D;53332;51.082;5.832;2023-08-17T01:53:37;20.74;112.69
66506;HTU21D;53332;51.082;5.832;2023-08-17T01:56:03;20.70;112.84
66506;HTU21D;53332;51.082;5.832;2023-08-17T01:58:29;20.64;112.99
66506;HTU21D;53332;51.082;5.832;2023-08-17T02:00:54;20.63;114.12
66506;HTU21D;53332;51.082;5.832;2023-08-17T02:03:20;20.58;114.11
66506;HTU21D;53332;51.082;5.832;2023-08-17T02:05:46;20.56;114.38
66506;HTU21D;53332;51.082;5.832;2023-08-17T02:08:12;20.55;114.81
66506;HTU21D;53332;51.082;5.832;2023-08-17T02:10:38;20.56;115.42
66506;HTU21D;53332;51.082;5.832;2023-08-17T02:13:03;20.55;115.91
66506;HTU21D;53332;51.082;5.832;2023-08-17T02:15:29;20.54;115.58
66506;HTU21D;53332;51.082;5.832;2023-08-17T02:17:59;20.57;115.25
66506;HTU21D;53332;51.082;5.832;2023-08-17T02:20:24;20.53;115.86
66506;HTU21D;53332;51.082;5.832;2023-08-17T02:22:50;20.59;115.17
66506;HTU21D;53332;51.082;5.832;2023-08-17T02:25:15;20.57;115.43
66506;HTU21D;53332;51.082;5.832;2023-08-17T02:27:41;20.53;115.24
66506;HTU21D;53332;51.082;5.832;2023-08-17T02:30:07;20.54;115.16
66506;HTU21D;53332;51.082;5.832;2023-08-17T02:32:33;20.53;115.61
66506;HTU21D;53332;51.082;5.832;2023-08-17T02:34:58;20.55;115.33
66506;HTU21D;53332;51.082;5.832;2023-08-17T02:37:24;20.48;115.51
66506;HTU21D;53332;51.082;5.832;2023-08-17T02:39:49;20.53;115.88
66506;HTU21D;53332;51.082;5.832;2023-08-17T02:42:15;20.56;115.83
66506;HTU21D;53332;51.082;5.832;2023-08-17T02:44:43;20.58;115.75
66506;HTU21D;53332;51.082;5.832;2023-08-17T02:47:09;20.59;115.41
66506;HTU21D;53332;51.082;5.832;2023-08-17T02:49:35;20.58;115.19
66506;HTU21D;53332;51.082;5.832;2023-08-17T02:52:00;20.50;115.51
66506;HTU21D;53332;51.082;5.832;2023-08-17T02:54:26;20.45;115.65
66506;HTU21D;53332;51.082;5.832;2023-08-17T02:56:52;20.39;116.17
66506;HTU21D;53332;51.082;5.832;2023-08-17T02:59:17;20.35;116.27
66506;HTU21D;53332;51.082;5.832;2023-08-17T03:01:45;20.30;116.92
66506;HTU21D;53332;51.082;5.832;2023-08-17T03:04:10;20.30;117.59
66506;HTU21D;53332;51.082;5.832;2023-08-17T03:06:36;20.28;117.64
66506;HTU21D;53332;51.082;5.832;2023-08-17T03:09:02;20.20;118.44
66506;HTU21D;53332;51.082;5.832;2023-08-17T03:11:27;20.25;118.98
66506;HTU21D;53332;51.082;5.832;2023-08-17T03:13:53;20.29;118.99
66506;HTU21D;53332;51.082;5.832;2023-08-17T03:16:27;20.30;118.99
66506;HTU21D;53332;51.082;5.832;2023-08-17T03:18:55;20.33;118.76
66506;HTU21D;53332;51.082;5.832;2023-08-17T03:21:21;20.32;118.74
66506;HTU21D;53332;51.082;5.832;2023-08-17T03:23:48;20.33;118.46
66506;HTU21D;53332;51.082;5.832;2023-08-17T03:26:14;20.33;118.32
66506;HTU21D;53332;51.082;5.832;2023-08-17T03:28:40;20.25;118.76
66506;HTU21D;53332;51.082;5.832;2023-08-17T03:31:06;20.25;118.79
66506;HTU21D;53332;51.082;5.832;2023-08-17T03:33:35;20.22;118.79
66506;HTU21D;53332;51.082;5.832;2023-08-17T03:36:01;20.19;118.99
66506;HTU21D;53332;51.082;5.832;2023-08-17T03:38:27;20.20;118.92
66506;HTU21D;53332;51.082;5.832;2023-08-17T03:40:52;20.25;118.79
66506;HTU21D;53332;51.082;5.832;2023-08-17T03:43:18;20.21;118.72
66506;HTU21D;53332;51.082;5.832;2023-08-17T03:45:43;20.19;118.93
66506;HTU21D;53332;51.082;5.832;2023-08-17T03:48:09;20.18;118.69
66506;HTU21D;53332;51.082;5.832;2023-08-17T03:50:35;20.13;118.69
66506;HTU21D;53332;51.082;5.832;2023-08-17T03:53:00;20.04;118.99
66506;HTU21D;53332;51.082;5.832;2023-08-17T03:55:26;20.01;118.99
66506;HTU21D;53332;51.082;5.832;2023-08-17T03:57:52;19.98;118.99
66506;HTU21D;53332;51.082;5.832;2023-08-17T04:00:17;19.94;118.99
66506;HTU21D;53332;51.082;5.832;2023-08-17T04:02:43;19.87;118.99
66506;HTU21D;53332;51.082;5.832;2023-08-17T04:05:09;19.79;118.99
66506;HTU21D;53332;51.082;5.832;2023-08-17T04:07:36;19.77;118.99
66506;HTU21D;53332;51.082;5.832;2023-08-17T04:10:03;19.80;118.99
66506;HTU21D;53332;51.082;5.832;2023-08-17T04:12:28;19.80;118.99
66506;HTU21D;53332;51.082;5.832;2023-08-17T04:14:54;19.84;118.99
66506;HTU21D;53332;51.082;5.832;2023-08-17T04:17:19;19.88;118.99
66506;HTU21D;53332;51.082;5.832;2023-08-17T04:19:46;19.91;118.99
66506;HTU21D;53332;51.082;5.832;2023-08-17T04:22:12;20.00;118.99
66506;HTU21D;53332;51.082;5.832;2023-08-17T04:24:37;19.99;118.99
66506;HTU21D;53332;51.082;5.832;2023-08-17T04:27:03;19.98;118.66
66506;HTU21D;53332;51.082;5.832;2023-08-17T04:29:30;19.97;118.36
66506;HTU21D;53332;51.082;5.832;2023-08-17T04:31:57;19.88;118.07
66506;HTU21D;53332;51.082;5.832;2023-08-17T04:34:22;19.80;118.67
66506;HTU21D;53332;51.082;5.832;2023-08-17T04:36:48;19.75;118.86
66506;HTU21D;53332;51.082;5.832;2023-08-17T04:39:13;19.71;118.99
66506;HTU21D;53332;51.082;5.832;2023-08-17T04:41:39;19.68;118.99
66506;HTU21D;53332;51.082;5.832;2023-08-17T04:44:05;19.73;118.99
66506;HTU21D;53332;51.082;5.832;2023-08-17T04:46:30;19.73;118.99
66506;HTU21D;53332;51.082;5.832;2023-08-17T04:48:56;19.71;118.99
66506;HTU21D;53332;51.082;5.832;2023-08-17T04:51:21;19.71;118.99
66506;HTU21D;53332;51.082;5.832;2023-08-17T04:53:47;19.71;118.99
66506;HTU21D;53332;51.082;5.832;2023-08-17T04:56:12;19.73;118.99
66506;HTU21D;53332;51.082;5.832;2023-08-17T04:58:38;19.79;118.99
66506;HTU21D;53332;51.082;5.832;2023-08-17T05:01:03;19.82;118.99
66506;HTU21D;53332;51.082;5.832;2023-08-17T05:03:29;19.86;118.99
66506;HTU21D;53332;51.082;5.832;2023-08-17T05:05:54;19.85;118.99
66506;HTU21D;53332;51.082;5.832;2023-08-17T05:08:20;19.84;118.99
66506;HTU21D;53332;51.082;5.832;2023-08-17T05:10:48;19.85;118.99
66506;HTU21D;53332;51.082;5.832;2023-08-17T05:13:13;19.83;118.99
66506;HTU21D;53332;51.082;5.832;2023-08-17T05:15:39;19.84;118.99
66506;HTU21D;53332;51.082;5.832;2023-08-17T05:18:05;19.83;118.99
66506;HTU21D;53332;51.082;5.832;2023-08-17T05:20:30;19.81;118.99
66506;HTU21D;53332;51.082;5.832;2023-08-17T05:22:56;19.83;118.99
66506;HTU21D;53332;51.082;5.832;2023-08-17T05:25:21;19.80;118.99
66506;HTU21D;53332;51.082;5.832;2023-08-17T05:27:48;19.76;118.99
66506;HTU21D;53332;51.082;5.832;2023-08-17T05:30:16;19.76;118.99
66506;HTU21D;53332;51.082;5.832;2023-08-17T05:32:41;19.76;118.99
66506;HTU21D;53332;51.082;5.832;2023-08-17T05:35:07;19.76;118.99
66506;HTU21D;53332;51.082;5.832;2023-08-17T05:37:33;19.75;118.99
66506;HTU21D;53332;51.082;5.832;2023-08-17T05:39:58;19.77;118.99
66506;HTU21D;53332;51.082;5.832;2023-08-17T05:42:24;19.75;118.99
66506;HTU21D;53332;51.082;5.832;2023-08-17T05:44:50;19.75;118.99
66506;HTU21D;53332;51.082;5.832;2023-08-17T05:47:15;19.76;118.99
66506;HTU21D;53332;51.082;5.832;2023-08-17T05:49:43;19.81;118.99
66506;HTU21D;53332;51.082;5.832;2023-08-17T05:52:09;19.84;118.99
66506;HTU21D;53332;51.082;5.832;2023-08-17T05:54:34;19.87;118.99
66506;HTU21D;53332;51.082;5.832;2023-08-17T05:57:01;19.85;118.99
66506;HTU21D;53332;51.082;5.832;2023-08-17T05:59:27;19.87;118.99
66506;HTU21D;53332;51.082;5.832;2023-08-17T06:01:53;19.88;118.99
66506;HTU21D;53332;51.082;5.832;2023-08-17T06:04:18;19.89;118.99
66506;HTU21D;53332;51.082;5.832;2023-08-17T06:06:45;19.92;118.99
66506;HTU21D;53332;51.082;5.832;2023-08-17T06:09:10;19.91;118.99
66506;HTU21D;53332;51.082;5.832;2023-08-17T06:11:36;19.92;118.99
66506;HTU21D;53332;51.082;5.832;2023-08-17T06:14:01;19.96;118.99
66506;HTU21D;53332;51.082;5.832;2023-08-17T06:16:27;19.95;118.99
66506;HTU21D;53332;51.082;5.832;2023-08-17T06:18:52;19.92;118.99
66506;HTU21D;53332;51.082;5.832;2023-08-17T06:21:18;19.97;118.99
66506;HTU21D;53332;51.082;5.832;2023-08-17T06:23:44;19.99;118.49
66506;HTU21D;53332;51.082;5.832;2023-08-17T06:26:10;19.89;118.99
66506;HTU21D;53332;51.082;5.832;2023-08-17T06:28:36;19.89;118.99
66506;HTU21D;53332;51.082;5.832;2023-08-17T06:31:01;19.88;118.99
66506;HTU21D;53332;51.082;5.832;2023-08-17T06:33:27;19.84;118.99
66506;HTU21D;53332;51.082;5.832;2023-08-17T06:35:52;19.82;118.99
66506;HTU21D;53332;51.082;5.832;2023-08-17T06:38:18;19.81;118.99
66506;HTU21D;53332;51.082;5.832;2023-08-17T06:40:45;19.79;118.99
66506;HTU21D;53332;51.082;5.832;2023-08-17T06:43:10;19.77;118.99
66506;HTU21D;53332;51.082;5.832;2023-08-17T06:45:36;19.83;118.99
66506;HTU21D;53332;51.082;5.832;2023-08-17T06:48:02;19.86;118.99
66506;HTU21D;53332;51.082;5.832;2023-08-17T06:50:27;19.82;118.99
66506;HTU21D;53332;51.082;5.832;2023-08-17T06:52:54;19.83;118.99
66506;HTU21D;53332;51.082;5.832;2023-08-17T06:55:19;19.90;118.99
66506;HTU21D;53332;51.082;5.832;2023-08-17T06:57:45;19.95;118.99
66506;HTU21D;53332;51.082;5.832;2023-08-17T07:00:11;20.03;118.99
66506;HTU21D;53332;51.082;5.832;2023-08-17T07:02:37;20.10;118.99
66506;HTU21D;53332;51.082;5.832;2023-08-17T07:05:03;20.15;118.99
66506;HTU21D;53332;51.082;5.832;2023-08-17T07:07:30;20.16;118.99
66506;HTU21D;53332;51.082;5.832;2023-08-17T07:09:57;20.18;118.99
66506;HTU21D;53332;51.082;5.832;2023-08-17T07:12:23;20.21;118.99
66506;HTU21D;53332;51.082;5.832;2023-08-17T07:14:54;20.17;118.99
66506;HTU21D;53332;51.082;5.832;2023-08-17T07:17:19;20.06;118.99
66506;HTU21D;53332;51.082;5.832;2023-08-17T07:19:45;19.99;118.99
66506;HTU21D;53332;51.082;5.832;2023-08-17T07:22:10;19.94;118.99
66506;HTU21D;53332;51.082;5.832;2023-08-17T07:24:36;19.94;118.99
66506;HTU21D;53332;51.082;5.832;2023-08-17T07:27:01;19.89;118.99
66506;HTU21D;53332;51.082;5.832;2023-08-17T07:29:27;19.95;118.99
66506;HTU21D;53332;51.082;5.832;2023-08-17T07:31:52;20.00;118.99
66506;HTU21D;53332;51.082;5.832;2023-08-17T07:34:19;20.07;118.99
66506;HTU21D;53332;51.082;5.832;2023-08-17T07:36:45;20.14;118.99
66506;HTU21D;53332;51.082;5.832;2023-08-17T07:39:11;20.21;118.99
66506;HTU21D;53332;51.082;5.832;2023-08-17T07:41:36;20.29;118.99
66506;HTU21D;53332;51.082;5.832;2023-08-17T07:44:02;20.32;118.99
66506;HTU21D;53332;51.082;5.832;2023-08-17T07:46:27;20.40;118.99
66506;HTU21D;53332;51.082;5.832;2023-08-17T07:48:53;20.41;118.99
66506;HTU21D;53332;51.082;5.832;2023-08-17T07:51:18;20.41;118.99
66506;HTU21D;53332;51.082;5.832;2023-08-17T07:53:44;20.42;118.95
66506;HTU21D;53332;51.082;5.832;2023-08-17T07:56:09;20.42;118.40
66506;HTU21D;53332;51.082;5.832;2023-08-17T07:58:35;20.39;118.96
66506;HTU21D;53332;51.082;5.832;2023-08-17T08:01:01;20.40;118.99
66506;HTU21D;53332;51.082;5.832;2023-08-17T08:03:26;20.37;118.99
66506;HTU21D;53332;51.082;5.832;2023-08-17T08:05:51;20.33;118.99
66506;HTU21D;53332;51.082;5.832;2023-08-17T08:08:17;20.31;118.99
66506;HTU21D;53332;51.082;5.832;2023-08-17T08:10:43;20.28;118.99
66506;HTU21D;53332;51.082;5.832;2023-08-17T08:13:09;20.31;118.99
66506;HTU21D;53332;51.082;5.832;2023-08-17T08:15:35;20.35;118.99
66506;HTU21D;53332;51.082;5.832;2023-08-17T08:18:00;20.34;118.99
66506;HTU21D;53332;51.082;5.832;2023-08-17T08:20:26;20.35;118.99
66506;HTU21D;53332;51.082;5.832;2023-08-17T08:22:51;20.43;118.99
66506;HTU21D;53332;51.082;5.832;2023-08-17T08:25:17;20.43;118.99
66506;HTU21D;53332;51.082;5.832;2023-08-17T08:27:42;20.42;118.99
66506;HTU21D;53332;51.082;5.832;2023-08-17T08:30:08;20.44;118.99
66506;HTU21D;53332;51.082;5.832;2023-08-17T08:32:34;20.48;118.99
66506;HTU21D;53332;51.082;5.832;2023-08-17T08:34:59;20.51;118.99
66506;HTU21D;53332;51.082;5.832;2023-08-17T08:37:25;20.55;118.99
66506;HTU21D;53332;51.082;5.832;2023-08-17T08:39:55;20.60;118.99
66506;HTU21D;53332;51.082;5.832;2023-08-17T08:42:21;20.64;118.99
66506;HTU21D;53332;51.082;5.832;2023-08-17T08:44:49;20.70;118.99
66506;HTU21D;53332;51.082;5.832;2023-08-17T08:47:16;20.73;118.74
66506;HTU21D;53332;51.082;5.832;2023-08-17T08:50:03;20.79;118.42
66506;HTU21D;53332;51.082;5.832;2023-08-17T08:52:44;20.80;118.40
66506;HTU21D;53332;51.082;5.832;2023-08-17T08:55:19;20.83;118.83
66506;HTU21D;53332;51.082;5.832;2023-08-17T08:57:47;20.87;118.64
66506;HTU21D;53332;51.082;5.832;2023-08-17T09:00:14;20.87;118.46
66506;HTU21D;53332;51.082;5.832;2023-08-17T09:02:42;20.86;117.93
66506;HTU21D;53332;51.082;5.832;2023-08-17T09:05:10;20.78;118.44
66506;HTU21D;53332;51.082;5.832;2023-08-17T09:07:37;20.79;118.88
66506;HTU21D;53332;51.082;5.832;2023-08-17T09:10:06;20.81;118.88
66506;HTU21D;53332;51.082;5.832;2023-08-17T09:12:32;20.86;118.46
66506;HTU21D;53332;51.082;5.832;2023-08-17T09:14:57;20.93;118.09
66506;HTU21D;53332;51.082;5.832;2023-08-17T09:17:27;20.91;117.71
66506;HTU21D;53332;51.082;5.832;2023-08-17T09:19:53;20.81;118.27
66506;HTU21D;53332;51.082;5.832;2023-08-17T09:22:40;20.84;118.99
66506;HTU21D;53332;51.082;5.832;2023-08-17T09:25:06;20.91;118.99
66506;HTU21D;53332;51.082;5.832;2023-08-17T09:27:32;20.98;118.68
66506;HTU21D;53332;51.082;5.832;2023-08-17T09:30:05;21.08;118.04
66506;HTU21D;53332;51.082;5.832;2023-08-17T09:32:32;21.18;116.71
66506;HTU21D;53332;51.082;5.832;2023-08-17T09:35:05;21.10;116.54
66506;HTU21D;53332;51.082;5.832;2023-08-17T09:37:32;21.10;117.19
66506;HTU21D;53332;51.082;5.832;2023-08-17T09:39:58;21.13;116.73
66506;HTU21D;53332;51.082;5.832;2023-08-17T09:42:24;21.06;117.39
66506;HTU21D;53332;51.082;5.832;2023-08-17T09:44:54;21.07;116.85
66506;HTU21D;53332;51.082;5.832;2023-08-17T09:47:22;21.03;117.41
66506;HTU21D;53332;51.082;5.832;2023-08-17T09:49:55;21.16;118.26
66506;HTU21D;53332;51.082;5.832;2023-08-17T09:52:23;21.24;116.55
66506;HTU21D;53332;51.082;5.832;2023-08-17T09:54:49;21.20;115.47
66506;HTU21D;53332;51.082;5.832;2023-08-17T09:57:17;21.08;115.79
66506;HTU21D;53332;51.082;5.832;2023-08-17T09:59:42;21.07;116.83
66506;HTU21D;53332;51.082;5.832;2023-08-17T10:02:19;21.10;117.33
66506;HTU21D;53332;51.082;5.832;2023-08-17T10:04:51;21.15;117.12
66506;HTU21D;53332;51.082;5.832;2023-08-17T10:07:24;21.21;116.88
66506;HTU21D;53332;51.082;5.832;2023-08-17T10:10:03;21.33;116.49
66506;HTU21D;53332;51.082;5.832;2023-08-17T10:12:37;21.43;116.29
66506;HTU21D;53332;51.082;5.832;2023-08-17T10:15:08;21.47;116.31
66506;HTU21D;53332;51.082;5.832;2023-08-17T10:20:18;21.57;116.09
66506;HTU21D;53332;51.082;5.832;2023-08-17T10:23:14;21.60;115.22
66506;HTU21D;53332;51.082;5.832;2023-08-17T10:25:41;21.59;115.49
66506;HTU21D;53332;51.082;5.832;2023-08-17T10:28:10;21.61;114.76
66506;HTU21D;53332;51.082;5.832;2023-08-17T10:30:40;21.59;114.23
66506;HTU21D;53332;51.082;5.832;2023-08-17T10:33:07;21.60;113.85
66506;HTU21D;53332;51.082;5.832;2023-08-17T10:35:35;21.55;114.70
66506;HTU21D;53332;51.082;5.832;2023-08-17T10:38:02;21.60;114.86
66506;HTU21D;53332;51.082;5.832;2023-08-17T10:40:32;21.68;115.24
66506;HTU21D;53332;51.082;5.832;2023-08-17T10:42:59;21.78;115.24
66506;HTU21D;53332;51.082;5.832;2023-08-17T10:45:29;21.85;114.77
66506;HTU21D;53332;51.082;5.832;2023-08-17T10:50:37;21.94;114.18
66506;HTU21D;53332;51.082;5.832;2023-08-17T10:53:08;21.98;113.67
66506;HTU21D;53332;51.082;5.832;2023-08-17T10:55:45;21.98;112.61
66506;HTU21D;53332;51.082;5.832;2023-08-17T10:58:13;21.95;112.29
66506;HTU21D;53332;51.082;5.832;2023-08-17T11:00:39;21.87;111.38
66506;HTU21D;53332;51.082;5.832;2023-08-17T11:03:07;21.74;112.93
66506;HTU21D;53332;51.082;5.832;2023-08-17T11:08:11;21.65;113.73
66506;HTU21D;53332;51.082;5.832;2023-08-17T11:10:39;21.60;114.51
66506;HTU21D;53332;51.082;5.832;2023-08-17T11:13:05;21.52;114.61
66506;HTU21D;53332;51.082;5.832;2023-08-17T11:15:41;21.53;114.78
66506;HTU21D;53332;51.082;5.832;2023-08-17T11:18:09;21.51;114.39
66506;HTU21D;53332;51.082;5.832;2023-08-17T11:20:37;21.59;114.46
66506;HTU21D;53332;51.082;5.832;2023-08-17T11:23:04;21.62;113.99
66506;HTU21D;53332;51.082;5.832;2023-08-17T11:25:32;21.62;114.20
66506;HTU21D;53332;51.082;5.832;2023-08-17T11:27:59;21.62;114.22
66506;HTU21D;53332;51.082;5.832;2023-08-17T11:30:26;21.60;114.85
66506;HTU21D;53332;51.082;5.832;2023-08-17T11:32:54;21.65;115.59
66506;HTU21D;53332;51.082;5.832;2023-08-17T11:35:21;21.72;115.33
66506;HTU21D;53332;51.082;5.832;2023-08-17T11:37:47;21.65;114.01
66506;HTU21D;53332;51.082;5.832;2023-08-17T11:40:16;21.61;114.35
66506;HTU21D;53332;51.082;5.832;2023-08-17T11:42:44;21.61;114.85
66506;HTU21D;53332;51.082;5.832;2023-08-17T11:45:10;21.57;115.64
66506;HTU21D;53332;51.082;5.832;2023-08-17T11:47:37;21.57;116.02
66506;HTU21D;53332;51.082;5.832;2023-08-17T11:50:03;21.61;116.20
66506;HTU21D;53332;51.082;5.832;2023-08-17T11:52:30;21.60;116.13
66506;HTU21D;53332;51.082;5.832;2023-08-17T11:54:58;21.63;116.18
66506;HTU21D;53332;51.082;5.832;2023-08-17T11:57:25;21.65;116.28
66506;HTU21D;53332;51.082;5.832;2023-08-17T11:59:55;21.66;115.54
66506;HTU21D;53332;51.082;5.832;2023-08-17T12:02:23;21.64;114.60
66506;HTU21D;53332;51.082;5.832;2023-08-17T12:04:49;21.72;115.10
66506;HTU21D;53332;51.082;5.832;2023-08-17T12:07:15;21.78;114.98
66506;HTU21D;53332;51.082;5.832;2023-08-17T12:09:43;21.75;114.74
66506;HTU21D;53332;51.082;5.832;2023-08-17T12:12:10;21.77;115.54
66506;HTU21D;53332;51.082;5.832;2023-08-17T12:14:36;21.84;115.25
66506;HTU21D;53332;51.082;5.832;2023-08-17T12:17:03;21.91;115.47
66506;HTU21D;53332;51.082;5.832;2023-08-17T12:19:29;21.89;114.41
66506;HTU21D;53332;51.082;5.832;2023-08-17T12:21:56;21.94;114.67
66506;HTU21D;53332;51.082;5.832;2023-08-17T12:24:26;21.94;114.93
66506;HTU21D;53332;51.082;5.832;2023-08-17T12:26:52;21.99;114.91
66506;HTU21D;53332;51.082;5.832;2023-08-17T12:29:17;21.96;115.30
66506;HTU21D;53332;51.082;5.832;2023-08-17T12:31:44;21.99;116.45
66506;HTU21D;53332;51.082;5.832;2023-08-17T12:34:10;22.03;116.18
66506;HTU21D;53332;51.082;5.832;2023-08-17T12:36:35;22.06;115.09
66506;HTU21D;53332;51.082;5.832;2023-08-17T12:39:03;22.16;114.98
66506;HTU21D;53332;51.082;5.832;2023-08-17T12:41:29;22.20;114.32
66506;HTU21D;53332;51.082;5.832;2023-08-17T12:43:55;22.28;114.34
66506;HTU21D;53332;51.082;5.832;2023-08-17T12:46:24;22.28;114.02
66506;HTU21D;53332;51.082;5.832;2023-08-17T12:48:49;22.29;114.23
66506;HTU21D;53332;51.082;5.832;2023-08-17T12:51:15;22.25;114.00
66506;HTU21D;53332;51.082;5.832;2023-08-17T12:53:41;22.26;114.43
66506;HTU21D;53332;51.082;5.832;2023-08-17T12:56:07;22.36;115.25
66506;HTU21D;53332;51.082;5.832;2023-08-17T12:58:33;22.44;114.70
66506;HTU21D;53332;51.082;5.832;2023-08-17T13:00:59;22.49;113.44
66506;HTU21D;53332;51.082;5.832;2023-08-17T13:03:24;22.50;113.35
66506;HTU21D;53332;51.082;5.832;2023-08-17T13:05:50;22.47;112.15
66506;HTU21D;53332;51.082;5.832;2023-08-17T13:08:15;22.43;111.60
66506;HTU21D;53332;51.082;5.832;2023-08-17T13:10:41;22.38;111.97
66506;HTU21D;53332;51.082;5.832;2023-08-17T13:13:07;22.35;112.06
66506;HTU21D;53332;51.082;5.832;2023-08-17T13:15:33;22.37;112.58
66506;HTU21D;53332;51.082;5.832;2023-08-17T13:17:59;22.49;112.13
66506;HTU21D;53332;51.082;5.832;2023-08-17T13:20:25;22.49;110.87
66506;HTU21D;53332;51.082;5.832;2023-08-17T13:22:51;22.41;111.08
66506;HTU21D;53332;51.082;5.832;2023-08-17T13:25:16;22.42;112.30
66506;HTU21D;53332;51.082;5.832;2023-08-17T13:27:42;22.46;112.45
66506;HTU21D;53332;51.082;5.832;2023-08-17T13:30:08;22.43;112.57
66506;HTU21D;53332;51.082;5.832;2023-08-17T13:32:34;22.41;113.34
66506;HTU21D;53332;51.082;5.832;2023-08-17T13:35:01;22.43;112.35
66506;HTU21D;53332;51.082;5.832;2023-08-17T13:37:26;22.34;112.35
66506;HTU21D;53332;51.082;5.832;2023-08-17T13:39:53;22.36;113.27
66506;HTU21D;53332;51.082;5.832;2023-08-17T13:42:19;22.37;113.11
66506;HTU21D;53332;51.082;5.832;2023-08-17T13:44:44;22.41;112.98
66506;HTU21D;53332;51.082;5.832;2023-08-17T13:47:11;22.44;112.02
66506;HTU21D;53332;51.082;5.832;2023-08-17T13:49:37;22.49;112.10
66506;HTU21D;53332;51.082;5.832;2023-08-17T13:52:03;22.53;111.51
66506;HTU21D;53332;51.082;5.832;2023-08-17T13:54:29;22.64;113.10
66506;HTU21D;53332;51.082;5.832;2023-08-17T13:56:54;22.78;112.88
66506;HTU21D;53332;51.082;5.832;2023-08-17T13:59:20;22.86;111.85
66506;HTU21D;53332;51.082;5.832;2023-08-17T14:01:45;22.90;111.17
66506;HTU21D;53332;51.082;5.832;2023-08-17T14:04:11;22.87;110.78
66506;HTU21D;53332;51.082;5.832;2023-08-17T14:06:38;22.88;111.51
66506;HTU21D;53332;51.082;5.832;2023-08-17T14:09:04;22.93;111.44
66506;HTU21D;53332;51.082;5.832;2023-08-17T14:11:30;22.95;110.43
66506;HTU21D;53332;51.082;5.832;2023-08-17T14:13:55;23.00;110.74
66506;HTU21D;53332;51.082;5.832;2023-08-17T14:16:21;23.06;110.42
66506;HTU21D;53332;51.082;5.832;2023-08-17T14:18:47;23.02;109.42
66506;HTU21D;53332;51.082;5.832;2023-08-17T14:21:12;22.96;110.34
66506;HTU21D;53332;51.082;5.832;2023-08-17T14:23:39;23.00;110.08
66506;HTU21D;53332;51.082;5.832;2023-08-17T14:26:05;22.98;109.89
66506;HTU21D;53332;51.082;5.832;2023-08-17T14:28:30;23.01;110.02
66506;HTU21D;53332;51.082;5.832;2023-08-17T14:30:56;22.96;109.62
66506;HTU21D;53332;51.082;5.832;2023-08-17T14:33:22;22.91;109.59
66506;HTU21D;53332;51.082;5.832;2023-08-17T14:35:47;22.85;110.19
66506;HTU21D;53332;51.082;5.832;2023-08-17T14:38:13;22.83;109.88
66506;HTU21D;53332;51.082;5.832;2023-08-17T14:40:42;22.85;110.28
66506;HTU21D;53332;51.082;5.832;2023-08-17T14:43:09;22.90;110.26
66506;HTU21D;53332;51.082;5.832;2023-08-17T14:45:35;22.94;111.32
66506;HTU21D;53332;51.082;5.832;2023-08-17T14:48:00;23.00;111.45
66506;HTU21D;53332;51.082;5.832;2023-08-17T14:50:27;23.10;111.42
66506;HTU21D;53332;51.082;5.832;2023-08-17T14:52:53;23.20;110.61
66506;HTU21D;53332;51.082;5.832;2023-08-17T14:55:18;23.27;109.30
66506;HTU21D;53332;51.082;5.832;2023-08-17T14:57:44;23.36;109.00
66506;HTU21D;53332;51.082;5.832;2023-08-17T15:00:10;23.44;109.00
66506;HTU21D;53332;51.082;5.832;2023-08-17T15:02:35;23.49;109.44
66506;HTU21D;53332;51.082;5.832;2023-08-17T15:05:01;23.55;109.94
66506;HTU21D;53332;51.082;5.832;2023-08-17T15:07:26;23.57;109.11
66506;HTU21D;53332;51.082;5.832;2023-08-17T15:09:53;23.60;108.82
66506;HTU21D;53332;51.082;5.832;2023-08-17T15:12:18;23.61;109.56